Time;durP1;ratioP1;P1;durP2;ratioP2;P2;SDS_P1;SDS_P2;PMS_P1;PMS_P2;Temp;Humidity;BMP_temperature;BMP_pressure;BME280_temperature;BME280_humidity;BME280_pressure;Samples;Min_cycle;Max_cycle;Signal;HPM_P1;HPM_P2
2022/07/14 00:00:31;;;;;;;;;29.50;27.00;;;;;31.02;30.08;101325.25;2102247;28;47760;-60
2022/07/14 00:01:31;;;;;;;;;26.75;25.75;;;;;31.01;30.10;101318.91;2096889;28;47600;-60
2022/07/14 00:02:32;;;;;;;;;23.25;23.00;;;;;31.00;29.93;101322.66;2100484;28;47075;-60
2022/07/14 00:03:32;;;;;;;;;26.40;26.40;;;;;30.98;30.18;101324.66;2095340;28;47638;-59
2022/07/14 00:04:33;;;;;;;;;21.00;20.50;;;;;30.97;30.32;101317.47;2100753;28;47691;-60
2022/07/14 00:05:35;;;;;;;;;26.50;26.50;;;;;30.96;30.14;101320.38;2092640;28;47335;-60
2022/07/14 00:06:35;;;;;;;;;24.20;23.40;;;;;30.95;30.42;101319.50;2095994;28;47662;-58
2022/07/14 00:07:36;;;;;;;;;26.00;23.25;;;;;30.94;29.78;101315.03;2094910;28;46089;-59
2022/07/14 00:08:36;;;;;;;;;28.25;25.00;;;;;30.93;29.71;101321.53;2103430;28;47440;-61
2022/07/14 00:09:37;;;;;;;;;23.75;23.00;;;;;30.93;30.59;101321.53;2098174;28;47832;-60
2022/07/14 00:10:37;;;;;;;;;27.00;24.00;;;;;30.90;30.28;101324.59;2103447;28;47298;-61
2022/07/14 00:11:38;;;;;;;;;22.50;22.50;;;;;30.89;30.04;101319.25;2085585;28;47895;-58
2022/07/14 00:12:38;;;;;;;;;26.75;25.25;;;;;30.88;30.63;101323.88;2093408;28;47550;-61
2022/07/14 00:13:39;;;;;;;;;23.50;22.00;;;;;30.88;29.85;101320.28;2091645;28;47456;-61
2022/07/14 00:14:40;;;;;;;;;22.25;22.25;;;;;30.87;29.86;101315.78;2104114;28;47171;-59
2022/07/14 00:15:40;;;;;;;;;25.50;24.75;;;;;30.86;30.17;101314.91;2090656;28;45898;-60
2022/07/14 00:16:40;;;;;;;;;23.75;23.75;;;;;30.85;29.85;101318.66;2098457;28;47574;-60
2022/07/14 00:17:41;;;;;;;;;21.25;19.25;;;;;30.85;29.95;101301.38;2085309;28;47164;-59
2022/07/14 00:18:44;;;;;;;;;27.50;25.25;;;;;30.85;30.46;101301.38;2087754;28;47565;-60
2022/07/14 00:19:45;;;;;;;;;26.00;24.80;;;;;30.84;30.08;101302.38;2091957;28;47467;-58
2022/07/14 00:20:46;;;;;;;;;27.60;26.40;;;;;30.83;29.99;101300.66;2103752;28;47573;-59
2022/07/14 00:21:46;;;;;;;;;29.75;27.75;;;;;30.83;30.05;101300.66;2092192;28;47657;-60
2022/07/14 00:22:47;;;;;;;;;30.50;28.50;;;;;30.82;30.06;101299.78;2100219;28;47819;-60
2022/07/14 00:23:48;;;;;;;;;25.25;24.00;;;;;30.83;30.27;101293.28;2093577;28;47320;-60
2022/07/14 00:24:49;;;;;;;;;28.00;26.60;;;;;30.84;30.77;101296.91;2091565;28;47383;-60
2022/07/14 00:25:49;;;;;;;;;30.75;28.75;;;;;30.83;30.17;101289.69;2089485;28;47416;-60
2022/07/14 00:26:49;;;;;;;;;30.00;26.50;;;;;30.83;29.99;101289.69;2096505;28;48181;-61
2022/07/14 00:27:50;;;;;;;;;29.25;27.75;;;;;30.83;30.08;101292.44;2090313;28;47704;-61
2022/07/14 00:28:51;;;;;;;;;33.75;29.00;;;;;30.83;30.40;101289.69;2095372;28;45548;-60
2022/07/14 00:29:51;;;;;;;;;27.50;27.50;;;;;30.82;30.37;101286.09;2093244;28;47514;-60
2022/07/14 00:30:52;;;;;;;;;34.00;30.50;;;;;30.82;30.42;101288.84;2095657;28;47365;-60
2022/07/14 00:31:52;;;;;;;;;32.75;29.00;;;;;30.81;30.63;101281.63;2095153;28;47472;-60
2022/07/14 00:32:54;;;;;;;;;31.75;29.25;;;;;30.82;30.53;101287.97;2095840;28;47637;-59
2022/07/14 00:33:54;;;;;;;;;28.60;28.20;;;;;30.82;30.44;101275.13;2095965;28;46723;-59
2022/07/14 00:34:56;;;;;;;;;32.25;28.50;;;;;30.81;30.37;101272.53;2095680;28;47760;-60
2022/07/14 00:35:57;;;;;;;;;29.80;28.20;;;;;30.81;30.25;101278.03;2087143;28;47713;-58
2022/07/14 00:36:58;;;;;;;;;32.25;29.75;;;;;30.80;30.47;101276.31;2086925;28;47700;-58
2022/07/14 00:37:59;;;;;;;;;40.80;33.80;;;;;30.79;30.88;101267.22;2094100;28;47648;-59
2022/07/14 00:39:00;;;;;;;;;38.00;33.25;;;;;30.79;30.67;101263.63;2104207;28;47651;-57
2022/07/14 00:40:04;;;;;;;;;35.75;32.50;;;;;30.79;30.54;101264.47;2087022;28;47009;-59
2022/07/14 00:41:05;;;;;;;;;37.80;32.40;;;;;30.78;30.28;101257.28;2092476;28;47666;-59
2022/07/14 00:42:05;;;;;;;;;37.75;33.00;;;;;30.78;30.98;101261.91;2087037;28;47138;-59
2022/07/14 00:43:06;;;;;;;;;40.25;32.25;;;;;30.75;31.10;101255.72;2087495;28;47615;-60
2022/07/14 00:44:06;;;;;;;;;39.25;33.00;;;;;30.76;30.35;101259.31;2086724;28;47184;-59
2022/07/14 00:45:09;;;;;;;;;41.50;34.00;;;;;30.73;30.68;101263.19;2086359;28;47453;-59
2022/07/14 00:46:10;;;;;;;;;33.20;30.00;;;;;30.72;30.67;101261.47;2089138;28;47740;-59
2022/07/14 00:47:11;;;;;;;;;35.00;31.75;;;;;30.72;30.78;101260.59;2095140;28;48156;-59
2022/07/14 00:48:14;;;;;;;;;33.50;29.75;;;;;30.71;30.65;101261.63;2093850;28;47046;-59
2022/07/14 00:49:33;;;;;;;;;36.00;31.60;;;;;30.70;30.68;101263.50;2097701;28;47708;-60
2022/07/14 00:50:34;;;;;;;;;32.40;30.40;;;;;30.69;31.31;101264.50;2090346;28;45989;-59
2022/07/14 00:51:34;;;;;;;;;31.00;29.50;;;;;30.69;31.21;101266.38;2083162;28;47549;-59
2022/07/14 00:52:35;;;;;;;;;31.25;30.00;;;;;30.69;30.83;101271.88;2093514;28;47634;-59
2022/07/14 00:53:35;;;;;;;;;30.75;28.75;;;;;30.67;31.43;101263.81;2091893;28;47474;-57
2022/07/14 00:54:36;;;;;;;;;25.50;25.50;;;;;30.65;31.26;101265.84;2094779;28;47932;-60
2022/07/14 00:55:40;;;;;;;;;37.40;32.40;;;;;30.65;31.21;101271.31;2090427;28;47310;-60
2022/07/14 00:56:40;;;;;;;;;39.20;32.20;;;;;30.64;30.89;101268.72;2094157;28;45963;-59
2022/07/14 00:57:42;;;;;;;;;34.75;30.75;;;;;30.63;31.17;101270.59;2089949;28;47543;-59
2022/07/14 00:58:42;;;;;;;;;36.60;33.00;;;;;30.62;31.06;101268.84;2094215;28;47812;-60
2022/07/14 00:59:43;;;;;;;;;36.25;31.75;;;;;30.63;30.76;101267.00;2092531;28;46622;-59
2022/07/14 01:00:44;;;;;;;;;35.00;31.25;;;;;30.62;31.16;101270.69;2094501;28;47706;-60
2022/07/14 01:01:45;;;;;;;;;44.60;36.00;;;;;30.64;31.23;101271.47;2090946;28;47964;-57
2022/07/14 01:02:46;;;;;;;;;37.00;32.75;;;;;30.63;30.72;101273.34;2093031;28;47955;-60
2022/07/14 01:03:46;;;;;;;;;41.00;35.00;;;;;30.63;30.64;101275.22;2093564;28;47116;-57
2022/07/14 01:04:47;;;;;;;;;43.25;36.00;;;;;30.63;31.39;101281.56;2094929;28;47510;-59
2022/07/14 01:05:48;;;;;;;;;34.40;31.40;;;;;30.63;31.15;101286.19;2090186;28;47512;-60
2022/07/14 01:06:48;;;;;;;;;39.00;33.25;;;;;30.63;31.15;101287.03;2095082;28;47255;-59
2022/07/14 01:07:48;;;;;;;;;34.25;30.75;;;;;30.63;31.32;101284.31;2092117;28;47315;-58
2022/07/14 01:08:49;;;;;;;;;40.00;33.00;;;;;30.63;31.26;101289.78;2095222;28;47675;-59
2022/07/14 01:09:49;;;;;;;;;33.75;30.50;;;;;30.63;31.27;101292.53;2076943;28;47422;-59
2022/07/14 01:10:50;;;;;;;;;38.50;33.00;;;;;30.65;30.99;101289.63;2078318;28;47580;-59
2022/07/14 01:11:51;;;;;;;;;37.75;32.25;;;;;30.64;31.26;101286.03;2087876;28;46340;-60
2022/07/14 01:12:51;;;;;;;;;39.40;33.20;;;;;30.64;31.33;101283.28;2095247;28;47971;-58
2022/07/14 01:13:52;;;;;;;;;37.50;33.00;;;;;30.64;30.95;101277.81;2095093;27;46785;-59
2022/07/14 01:14:53;;;;;;;;;41.25;35.25;;;;;30.63;30.91;101276.09;2104667;28;48097;-59
2022/07/14 01:15:53;;;;;;;;;38.75;33.00;;;;;30.64;30.78;101285.16;2101671;27;47714;-59
2022/07/14 01:16:55;;;;;;;;;34.75;32.00;;;;;30.62;31.14;101288.03;2104559;28;48018;-59
2022/07/14 01:17:55;;;;;;;;;37.00;32.00;;;;;30.61;31.39;101286.28;2097558;27;46969;-60
2022/07/14 01:18:56;;;;;;;;;37.50;34.00;;;;;30.61;31.00;101286.28;2104684;28;47751;-59
2022/07/14 01:19:56;;;;;;;;;36.25;32.50;;;;;30.62;30.98;101292.59;2098291;27;47505;-59
2022/07/14 01:20:57;;;;;;;;;39.50;33.50;;;;;30.60;30.97;101297.38;2104005;28;47399;-59
2022/07/14 01:21:57;;;;;;;;;36.75;32.25;;;;;30.59;31.49;101288.31;2098045;27;48102;-60
2022/07/14 01:22:57;;;;;;;;;41.50;34.00;;;;;30.59;31.59;101295.66;2086672;28;45866;-59
2022/07/14 01:23:58;;;;;;;;;41.75;35.00;;;;;30.59;31.61;101293.78;2084594;28;47358;-60
2022/07/14 01:24:59;;;;;;;;;43.75;36.00;;;;;30.59;31.18;101298.41;2104924;28;47903;-59
2022/07/14 01:25:59;;;;;;;;;38.80;31.20;;;;;30.59;31.17;101292.91;2097687;27;47706;-59
2022/07/14 01:27:01;;;;;;;;;42.75;36.50;;;;;30.59;31.58;101301.13;2104811;28;47515;-59
2022/07/14 01:28:01;;;;;;;;;44.00;35.60;;;;;30.59;31.65;101299.25;2098551;27;47997;-59
2022/07/14 01:29:01;;;;;;;;;42.25;35.25;;;;;30.56;31.48;101290.47;2104740;28;47277;-57
2022/07/14 01:30:03;;;;;;;;;42.25;35.25;;;;;30.56;31.63;101299.56;2092911;28;47439;-59
2022/07/14 01:31:04;;;;;;;;;41.20;35.00;;;;;30.56;31.50;101304.19;2087219;28;47113;-60
2022/07/14 01:32:05;;;;;;;;;42.25;33.75;;;;;30.57;31.79;101311.38;2089599;28;47404;-59
2022/07/14 01:33:05;;;;;;;;;38.20;34.00;;;;;30.56;31.66;101312.41;2103544;28;47515;-59
2022/07/14 01:34:05;;;;;;;;;32.00;29.00;;;;;30.55;31.56;101303.31;2098687;27;47441;-59
2022/07/14 01:35:06;;;;;;;;;32.75;30.75;;;;;30.55;31.10;101302.44;2095198;28;47807;-58
2022/07/14 01:36:07;;;;;;;;;35.80;31.60;;;;;30.54;31.45;101312.56;2090984;28;47478;-59
2022/07/14 01:37:07;;;;;;;;;30.50;28.50;;;;;30.53;31.40;101301.75;2103682;28;47839;-60
2022/07/14 01:38:08;;;;;;;;;32.00;29.75;;;;;30.51;31.66;101301.03;2102884;27;47243;-58
2022/07/14 01:39:08;;;;;;;;;36.75;32.75;;;;;30.49;31.77;101295.69;2103392;28;48240;-60
2022/07/14 01:40:09;;;;;;;;;21.75;21.75;;;;;30.49;31.70;101303.91;2103644;27;47701;-60
2022/07/14 01:41:09;;;;;;;;;17.80;17.80;;;;;30.47;31.38;101305.91;2077151;28;48169;-59
2022/07/14 01:42:11;;;;;;;;;16.00;15.25;;;;;30.44;31.71;101298.00;2077214;28;47621;-60
2022/07/14 01:43:12;;;;;;;;;17.40;17.00;;;;;30.42;31.25;101300.91;2102840;28;47649;-59
2022/07/14 01:44:12;;;;;;;;;18.50;17.25;;;;;30.41;31.48;101303.78;2099548;27;47654;-60
2022/07/14 01:45:13;;;;;;;;;15.75;15.75;;;;;30.39;31.73;101297.59;2103310;27;47992;-57
2022/07/14 01:46:13;;;;;;;;;17.75;17.75;;;;;30.38;31.56;101304.97;2104172;27;47895;-58
2022/07/14 01:47:14;;;;;;;;;13.50;13.50;;;;;30.37;31.74;101302.38;2102501;28;47805;-59
2022/07/14 01:48:14;;;;;;;;;14.00;14.00;;;;;30.37;31.81;101305.09;2099422;27;47504;-59
2022/07/14 01:49:15;;;;;;;;;16.50;14.75;;;;;30.37;31.37;101305.09;2102458;28;47477;-60
2022/07/14 01:50:16;;;;;;;;;11.25;10.75;;;;;30.35;31.84;101299.75;2084163;28;46522;-59
2022/07/14 01:51:17;;;;;;;;;13.00;13.00;;;;;30.33;31.24;101299.03;2084916;28;47822;-59
2022/07/14 01:52:17;;;;;;;;;12.80;12.80;;;;;30.33;31.74;101299.03;2082124;28;47606;-59
2022/07/14 01:53:18;;;;;;;;;11.00;11.00;;;;;30.31;31.83;101297.47;2084976;28;47632;-60
2022/07/14 01:54:18;;;;;;;;;12.25;11.75;;;;;30.31;31.70;101292.00;2099684;27;47831;-60
2022/07/14 01:55:18;;;;;;;;;12.25;11.25;;;;;30.30;31.90;101291.13;2093746;28;47386;-59
2022/07/14 01:56:19;;;;;;;;;13.25;13.00;;;;;30.28;31.93;101290.41;2094784;28;48065;-59
2022/07/14 01:57:19;;;;;;;;;9.75;9.75;;;;;30.27;31.81;101291.44;2102641;28;47434;-57
2022/07/14 01:58:20;;;;;;;;;12.75;11.00;;;;;30.25;31.25;101284.38;2104142;27;46395;-59
2022/07/14 01:59:20;;;;;;;;;11.00;11.00;;;;;30.24;31.67;101291.72;2102218;28;47445;-59
2022/07/14 02:00:20;;;;;;;;;11.75;11.75;;;;;30.22;31.56;101288.25;2100755;27;47553;-58
2022/07/14 02:01:39;;;;;;;;;10.25;9.25;;;;;30.20;31.75;101287.53;2101608;27;45936;-59
2022/07/14 02:02:39;;;;;;;;;11.60;10.20;;;;;30.17;31.45;101285.09;2102947;27;48140;-58
2022/07/14 02:03:40;;;;;;;;;10.00;10.00;;;;;30.15;31.74;101287.97;2090486;28;47236;-59
2022/07/14 02:04:40;;;;;;;;;10.25;10.25;;;;;30.14;31.78;101286.25;2094641;28;47792;-59
2022/07/14 02:05:45;;;;;;;;;10.00;10.00;;;;;30.14;31.98;101290.88;2099357;27;47307;-60
2022/07/14 02:06:51;;;;;;;;;9.00;9.00;;;;;30.12;31.60;101285.53;2103868;27;47301;-59
2022/07/14 02:07:51;;;;;;;;;9.60;9.20;;;;;30.12;31.77;101287.41;2097590;27;47594;-59
2022/07/14 02:08:51;;;;;;;;;9.50;9.50;;;;;30.10;31.77;101290.28;2095682;28;47291;-59
2022/07/14 02:12:29;;;;;;;;;8.80;8.80;;;;;30.06;32.06;101288.00;2102081;27;48114;-59
2022/07/14 02:13:30;;;;;;;;;7.00;7.00;;;;;30.04;32.05;101279.91;2101756;27;47382;-60
2022/07/14 02:14:31;;;;;;;;;11.75;10.25;;;;;30.04;31.79;101282.63;2103909;27;47669;-59
2022/07/14 02:15:31;;;;;;;;;11.20;9.40;;;;;30.03;32.46;101286.38;2100867;28;47441;-59
2022/07/14 02:16:32;;;;;;;;;9.75;9.50;;;;;30.04;32.05;101279.03;2102185;27;47223;-59
2022/07/14 02:17:33;;;;;;;;;10.00;10.00;;;;;30.02;32.01;101279.19;2101546;28;47590;-59
2022/07/14 02:18:33;;;;;;;;;8.00;8.00;;;;;30.03;31.81;101280.03;2103833;27;46744;-60
2022/07/14 02:19:35;;;;;;;;;9.00;8.00;;;;;30.00;32.19;101274.88;2100288;28;47488;-59
2022/07/14 02:20:35;;;;;;;;;9.00;9.00;;;;;29.99;31.90;101274.00;2104241;27;47447;-60
2022/07/14 02:21:39;;;;;;;;;10.00;10.00;;;;;29.98;32.11;101271.38;2101839;28;47650;-59
2022/07/14 02:22:39;;;;;;;;;11.80;10.80;;;;;29.98;32.10;101280.47;2103595;27;47789;-59
2022/07/14 02:23:40;;;;;;;;;7.25;7.25;;;;;29.97;32.48;101277.88;2098774;28;47930;-59
2022/07/14 02:24:41;;;;;;;;;8.00;7.50;;;;;29.97;32.25;101269.66;2102753;27;47452;-59
2022/07/14 02:25:42;;;;;;;;;11.00;10.80;;;;;29.96;32.51;101273.41;2098807;28;48009;-59
2022/07/14 02:26:43;;;;;;;;;11.60;11.60;;;;;29.98;32.52;101276.84;2103263;27;47873;-60
2022/07/14 02:27:43;;;;;;;;;11.75;11.75;;;;;29.97;32.43;101270.53;2102626;28;47324;-61
2022/07/14 02:28:44;;;;;;;;;8.50;8.50;;;;;29.99;32.52;101273.13;2103641;27;47383;-59
2022/07/14 02:29:44;;;;;;;;;11.75;11.75;;;;;29.99;32.13;101268.53;2101715;27;47041;-60
2022/07/14 02:30:47;;;;;;;;;10.00;10.00;;;;;29.99;32.67;101271.28;2109107;27;47474;-56
2022/07/14 02:31:48;;;;;;;;;13.00;11.00;;;;;30.01;32.53;101268.38;2098024;27;47828;-59
2022/07/14 02:32:49;;;;;;;;;11.40;11.40;;;;;30.00;32.30;101266.66;2094764;28;47156;-58
2022/07/14 02:33:49;;;;;;;;;13.75;13.50;;;;;30.01;32.63;101273.84;2094683;28;46933;-57
2022/07/14 02:34:50;;;;;;;;;16.25;16.25;;;;;30.01;32.41;101265.66;2104750;27;47617;-59
2022/07/14 02:35:50;;;;;;;;;15.75;15.75;;;;;30.00;32.33;101262.03;2094491;27;47045;-59
2022/07/14 02:36:50;;;;;;;;;14.75;14.50;;;;;29.98;32.46;101271.38;2103863;28;47578;-57
2022/07/14 02:37:51;;;;;;;;;17.00;16.00;;;;;29.96;32.61;101268.78;2097118;27;47539;-59
2022/07/14 02:38:51;;;;;;;;;14.00;13.75;;;;;29.94;32.53;101273.56;2103744;28;47506;-59
2022/07/14 02:39:52;;;;;;;;;13.00;11.75;;;;;29.93;32.68;101266.34;2100312;27;47593;-59
2022/07/14 02:40:52;;;;;;;;;13.25;11.25;;;;;29.89;32.88;101267.66;2104221;28;47179;-60
2022/07/14 02:41:53;;;;;;;;;14.25;14.00;;;;;29.88;32.82;101263.22;2101095;27;47663;-59
2022/07/14 02:42:53;;;;;;;;;13.50;13.50;;;;;29.86;32.89;101266.09;2094415;28;47030;-59
2022/07/14 02:43:54;;;;;;;;;12.75;12.25;;;;;29.84;33.00;101265.34;2092023;28;46284;-59
2022/07/14 02:44:54;;;;;;;;;16.25;14.00;;;;;29.84;32.68;101270.81;2095017;28;47163;-59
2022/07/14 02:45:54;;;;;;;;;14.75;13.75;;;;;29.81;33.13;101268.38;2089465;28;47294;-62
2022/07/14 02:46:55;;;;;;;;;15.00;13.75;;;;;29.81;32.75;101270.25;2095712;28;47362;-60
2022/07/14 02:47:55;;;;;;;;;13.25;12.50;;;;;29.80;32.95;101263.06;2089559;28;47919;-60
2022/07/14 02:48:55;;;;;;;;;13.75;13.75;;;;;29.79;32.81;101261.31;2095357;28;47957;-59
2022/07/14 02:49:56;;;;;;;;;12.75;11.00;;;;;29.78;33.08;101265.94;2097363;27;47983;-60
2022/07/14 02:51:05;;;;;;;;;15.75;15.25;;;;;29.77;33.08;101263.34;2104133;28;47603;-61
2022/07/14 02:52:05;;;;;;;;;41.60;34.20;;;;;29.74;32.90;101261.78;2102914;27;47530;-61
2022/07/14 02:53:06;;;;;;;;;26.25;23.25;;;;;29.74;33.08;101263.66;2103015;28;47484;-61
2022/07/14 02:54:06;;;;;;;;;19.00;18.25;;;;;29.71;33.23;101259.31;2102414;27;47496;-61
2022/07/14 02:55:07;;;;;;;;;21.75;21.00;;;;;29.71;33.37;101263.91;2093601;28;47244;-61
2022/07/14 02:56:08;;;;;;;;;35.00;29.00;;;;;29.70;33.42;101254.84;2089772;28;47920;-61
2022/07/14 02:57:08;;;;;;;;;36.75;32.50;;;;;29.69;33.78;101247.66;2094454;28;47715;-61
2022/07/14 02:58:08;;;;;;;;;45.00;38.25;;;;;29.71;33.10;101253.84;2094194;28;47123;-61
2022/07/14 02:59:09;;;;;;;;;46.00;38.00;;;;;29.69;33.36;101247.66;2093875;28;47800;-62
2022/07/14 03:00:10;;;;;;;;;45.25;37.25;;;;;29.69;33.23;101250.38;2101194;27;47826;-61
2022/07/14 03:01:10;;;;;;;;;39.50;33.00;;;;;29.69;33.36;101250.38;2102653;28;47986;-62
2022/07/14 03:02:10;;;;;;;;;45.00;36.50;;;;;29.71;33.34;101252.97;2102771;27;47069;-61
2022/07/14 03:03:12;;;;;;;;;51.50;41.75;;;;;29.70;33.48;101251.25;2102397;28;47435;-62
2022/07/14 03:04:12;;;;;;;;;52.00;42.20;;;;;29.69;33.57;101255.00;2098930;27;47788;-61
2022/07/14 03:05:12;;;;;;;;;53.25;43.00;;;;;29.69;33.69;101253.13;2093788;28;47393;-60
2022/07/14 03:06:18;;;;;;;;;37.50;31.00;;;;;29.67;33.36;101257.00;2090838;28;47519;-61
2022/07/14 03:07:19;;;;;;;;;51.40;42.20;;;;;29.66;33.55;101263.50;2101990;28;47240;-60
2022/07/14 03:08:19;;;;;;;;;52.50;43.25;;;;;29.64;33.49;101258.16;2101923;27;47334;-60
2022/07/14 03:09:20;;;;;;;;;46.50;36.75;;;;;29.64;33.56;101262.78;2103102;28;45169;-61
2022/07/14 03:10:20;;;;;;;;;46.50;38.75;;;;;29.63;33.79;101259.19;2095088;28;47768;-60
2022/07/14 03:11:21;;;;;;;;;47.50;38.75;;;;;29.64;33.50;101260.03;2093598;28;47310;-60
2022/07/14 03:12:22;;;;;;;;;42.80;37.20;;;;;29.61;33.90;101257.59;2103520;27;47118;-60
2022/07/14 03:13:23;;;;;;;;;30.25;28.50;;;;;29.61;33.96;101249.41;2100914;28;48074;-63
2022/07/14 03:14:23;;;;;;;;;36.40;32.40;;;;;29.57;34.01;101252.38;2087274;28;47510;-62
2022/07/14 03:15:24;;;;;;;;;36.75;32.00;;;;;29.56;33.65;101253.41;2085514;28;47713;-61
2022/07/14 03:16:24;;;;;;;;;42.50;36.00;;;;;29.54;33.85;101258.16;2100575;27;47068;-61
2022/07/14 03:17:25;;;;;;;;;38.75;33.25;;;;;29.52;33.92;101246.50;2102380;28;47526;-59
2022/07/14 03:18:25;;;;;;;;;36.25;32.50;;;;;29.51;33.96;101244.78;2096192;28;47705;-62
2022/07/14 03:19:26;;;;;;;;;29.50;27.50;;;;;29.49;33.99;101248.66;2096638;28;45417;-59
2022/07/14 03:20:27;;;;;;;;;33.00;28.50;;;;;29.46;34.08;101249.75;2102034;27;47567;-60
2022/07/14 03:21:27;;;;;;;;;32.50;29.50;;;;;29.43;33.87;101249.19;2093868;28;47666;-60
2022/07/14 03:22:28;;;;;;;;;27.25;27.25;;;;;29.43;33.90;101249.19;2094519;28;45512;-58
2022/07/14 03:23:29;;;;;;;;;29.80;27.80;;;;;29.40;34.24;101253.06;2090503;28;47448;-58
2022/07/14 03:24:30;;;;;;;;;26.20;24.80;;;;;29.38;34.05;101248.75;2095078;28;47466;-60
2022/07/14 03:25:31;;;;;;;;;31.50;28.25;;;;;29.38;34.28;101255.09;2093963;28;45109;-59
2022/07/14 03:26:32;;;;;;;;;26.40;25.00;;;;;29.39;34.39;101261.41;2094670;28;48031;-59
2022/07/14 03:27:35;;;;;;;;;27.50;23.50;;;;;29.38;34.30;101251.50;2099454;27;46007;-59
2022/07/14 03:28:36;;;;;;;;;22.40;21.60;;;;;29.37;34.17;101256.09;2103564;27;47444;-60
2022/07/14 03:29:40;;;;;;;;;18.00;16.50;;;;;29.36;34.32;101253.50;2102292;27;46687;-59
2022/07/14 03:30:41;;;;;;;;;19.20;19.20;;;;;29.34;34.30;101253.63;2105122;27;47902;-59
2022/07/14 03:31:42;;;;;;;;;21.20;18.80;;;;;29.31;34.61;101253.91;2102370;28;47292;-58
2022/07/14 03:32:42;;;;;;;;;18.25;17.50;;;;;29.30;34.48;101257.66;2103708;27;47233;-58
2022/07/14 03:33:42;;;;;;;;;15.00;14.00;;;;;29.28;34.41;101255.06;2102452;28;47497;-58
2022/07/14 03:34:43;;;;;;;;;18.00;16.75;;;;;29.26;34.58;101248.88;2103745;27;47387;-59
2022/07/14 03:35:44;;;;;;;;;15.75;15.25;;;;;29.25;34.69;101249.03;2101918;28;48032;-59
2022/07/14 03:36:44;;;;;;;;;16.00;15.00;;;;;29.25;35.00;101255.34;2103337;27;47871;-60
2022/07/14 03:37:45;;;;;;;;;17.75;16.50;;;;;29.25;34.97;101251.75;2102326;28;47756;-60
2022/07/14 03:38:45;;;;;;;;;16.25;14.25;;;;;29.25;34.82;101255.34;2103488;27;47254;-61
2022/07/14 03:39:46;;;;;;;;;12.25;12.25;;;;;29.24;34.77;101253.63;2093631;28;47944;-59
2022/07/14 03:40:46;;;;;;;;;15.00;13.25;;;;;29.25;34.67;101254.50;2095167;28;47566;-62
2022/07/14 03:41:47;;;;;;;;;14.00;13.75;;;;;29.26;34.62;101253.50;2104289;27;46700;-60
2022/07/14 03:42:47;;;;;;;;;14.00;14.00;;;;;29.26;34.96;101253.50;2110676;27;47319;-60
2022/07/14 03:43:47;;;;;;;;;15.25;13.75;;;;;29.27;35.03;101247.88;2101518;27;47629;-60
2022/07/14 03:44:48;;;;;;;;;11.00;11.00;;;;;29.28;34.68;101246.00;2104783;27;47652;-59
2022/07/14 03:45:48;;;;;;;;;15.50;15.50;;;;;29.28;34.71;101246.88;2102605;27;47766;-59
2022/07/14 03:46:49;;;;;;;;;12.25;12.25;;;;;29.29;34.93;101242.25;2105219;27;47137;-58
2022/07/14 03:47:49;;;;;;;;;11.75;11.00;;;;;29.28;34.75;101240.53;2103374;27;46391;-59
2022/07/14 03:48:51;;;;;;;;;11.75;11.75;;;;;29.28;34.55;101246.88;2105345;28;47355;-58
2022/07/14 03:49:51;;;;;;;;;12.00;12.00;;;;;29.28;34.79;101237.81;2103394;27;46856;-59
2022/07/14 03:50:52;;;;;;;;;10.00;10.00;;;;;29.26;34.90;101235.22;2100351;28;47900;-59
2022/07/14 03:51:52;;;;;;;;;11.50;11.50;;;;;29.24;34.92;101242.69;2094851;28;47597;-59
2022/07/14 03:52:52;;;;;;;;;13.00;13.00;;;;;29.21;35.22;101245.69;2097508;28;45551;-59
2022/07/14 03:53:53;;;;;;;;;12.00;10.75;;;;;29.18;34.99;101242.38;2085937;28;47091;-59
2022/07/14 03:54:53;;;;;;;;;12.00;10.50;;;;;29.17;35.31;101243.38;2088023;28;48007;-58
2022/07/14 03:55:54;;;;;;;;;11.00;11.00;;;;;29.15;35.15;101250.88;2094583;28;47223;-59
2022/07/14 03:56:54;;;;;;;;;10.50;10.00;;;;;29.15;35.21;101245.41;2096862;28;47770;-60
2022/07/14 03:57:54;;;;;;;;;12.75;12.75;;;;;29.14;35.33;101250.00;2094631;28;47613;-59
2022/07/14 03:58:55;;;;;;;;;13.50;10.75;;;;;29.14;35.25;101243.69;2096615;28;47767;-59
2022/07/14 03:59:55;;;;;;;;;12.75;12.75;;;;;29.15;35.37;101253.59;2085605;28;47982;-59
2022/07/14 04:00:56;;;;;;;;;10.50;10.50;;;;;29.14;35.41;101243.69;2087888;28;47490;-58
2022/07/14 04:01:56;;;;;;;;;12.75;12.75;;;;;29.14;35.34;101247.28;2091397;28;46151;-57
2022/07/14 04:02:56;;;;;;;;;11.00;10.00;;;;;29.14;35.21;101250.00;2088112;28;47456;-59
2022/07/14 04:03:57;;;;;;;;;10.50;10.50;;;;;29.15;35.25;101250.88;2086187;28;47698;-57
2022/07/14 04:04:57;;;;;;;;;15.25;14.25;;;;;29.16;35.31;101258.94;2097215;28;47720;-59
2022/07/14 04:05:57;;;;;;;;;14.25;13.25;;;;;29.16;35.32;101244.41;2084958;28;46215;-59
2022/07/14 04:06:58;;;;;;;;;11.75;11.75;;;;;29.17;35.36;101251.59;2087756;28;47201;-59
2022/07/14 04:07:59;;;;;;;;;10.75;10.75;;;;;29.17;35.39;101254.31;2094143;28;47550;-59
2022/07/14 04:09:00;;;;;;;;;11.25;11.25;;;;;29.18;35.42;101250.59;2091028;28;47613;-59
2022/07/14 04:10:01;;;;;;;;;13.40;13.40;;;;;29.18;35.70;101251.44;2094421;28;48139;-57
2022/07/14 04:11:01;;;;;;;;;15.00;13.25;;;;;29.18;35.39;101259.66;2096662;28;47922;-59
2022/07/14 04:12:02;;;;;;;;;13.50;11.75;;;;;29.18;35.36;101250.59;2085426;28;47089;-58
2022/07/14 04:13:03;;;;;;;;;12.00;11.75;;;;;29.18;35.31;101253.31;2087624;28;47164;-58
2022/07/14 04:14:03;;;;;;;;;12.20;11.80;;;;;29.17;35.31;101251.59;2074063;28;47517;-59
2022/07/14 04:15:04;;;;;;;;;13.00;12.25;;;;;29.17;35.32;101246.13;2078824;28;47155;-59
2022/07/14 04:16:05;;;;;;;;;11.75;11.75;;;;;29.15;35.41;101253.59;2095389;28;47582;-59
2022/07/14 04:17:05;;;;;;;;;12.00;11.75;;;;;29.16;35.52;101241.66;2096993;28;47912;-59
2022/07/14 04:18:06;;;;;;;;;10.50;10.50;;;;;29.16;35.56;101247.13;2094550;28;47219;-58
2022/07/14 04:19:07;;;;;;;;;16.25;13.00;;;;;29.15;35.44;101248.13;2095999;28;47763;-58
2022/07/14 04:20:08;;;;;;;;;13.40;11.40;;;;;29.14;35.98;101246.41;2096683;28;47752;-58
2022/07/14 04:21:09;;;;;;;;;13.00;12.20;;;;;29.11;34.95;101250.28;2096855;28;47238;-59
2022/07/14 04:22:09;;;;;;;;;11.00;11.00;;;;;29.10;35.59;101247.72;2096906;28;47826;-58
2022/07/14 04:23:09;;;;;;;;;13.25;13.25;;;;;29.08;35.67;101244.22;2081798;28;47549;-55
2022/07/14 04:24:10;;;;;;;;;12.00;10.25;;;;;29.05;36.05;101252.72;2080369;28;47737;-57
2022/07/14 04:25:12;;;;;;;;;12.25;10.00;;;;;29.03;35.60;101244.66;2095803;28;47875;-58
2022/07/14 04:26:13;;;;;;;;;11.60;11.60;;;;;29.02;35.60;101251.13;2096128;28;47985;-60
2022/07/14 04:27:13;;;;;;;;;11.00;11.00;;;;;29.02;35.83;101252.00;2096602;28;47229;-59
2022/07/14 04:28:16;;;;;;;;;13.75;13.00;;;;;29.02;35.79;101253.84;2097290;28;47941;-60
2022/07/14 04:29:17;;;;;;;;;14.00;14.00;;;;;29.00;35.82;101248.53;2097100;28;47983;-60
2022/07/14 04:30:17;;;;;;;;;13.00;13.00;;;;;29.00;35.78;101247.69;2085581;28;47984;-58
2022/07/14 04:31:18;;;;;;;;;14.50;13.50;;;;;28.99;36.05;101248.69;2079983;28;47298;-57
2022/07/14 04:32:18;;;;;;;;;13.00;13.00;;;;;28.99;35.84;101256.88;2096488;28;47060;-60
2022/07/14 04:33:20;;;;;;;;;14.50;13.75;;;;;28.99;36.03;101252.28;2096839;28;47689;-58
2022/07/14 04:34:20;;;;;;;;;13.60;12.00;;;;;28.98;35.80;101253.28;2096315;28;48262;-59
2022/07/14 04:35:20;;;;;;;;;12.25;12.25;;;;;28.98;35.90;101250.56;2096584;28;47577;-56
2022/07/14 04:36:22;;;;;;;;;11.75;11.25;;;;;28.99;36.04;101255.00;2096806;28;47174;-59
2022/07/14 04:37:22;;;;;;;;;11.80;11.80;;;;;28.99;35.85;101262.34;2096384;28;47892;-57
2022/07/14 04:38:25;;;;;;;;;13.75;13.00;;;;;29.00;36.00;101258.59;2096754;28;47733;-59
2022/07/14 04:39:25;;;;;;;;;11.00;11.00;;;;;28.98;36.07;101250.56;2096218;28;47946;-59